createdAt,value
2023-03-06T00:01:36.138Z,19.10
2023-03-06T00:04:08.349Z,5.10
2023-03-06T00:06:38.511Z,6.67
2023-03-06T00:09:09.376Z,3.97
2023-03-06T00:11:44.603Z,4.83
2023-03-06T00:14:14.798Z,4.10
2023-03-06T00:16:44.911Z,4.83
2023-03-06T00:19:14.954Z,5.03
2023-03-06T00:21:45.237Z,9.57
2023-03-06T00:24:15.234Z,8.53
2023-03-06T00:26:51.309Z,15.87
2023-03-06T00:29:27.235Z,6.80
2023-03-06T00:32:05.410Z,7.90
2023-03-06T00:34:37.196Z,6.53
2023-03-06T00:37:07.416Z,7.10
2023-03-06T00:39:37.656Z,13.70
2023-03-06T00:42:10.598Z,7.80
2023-03-06T00:44:41.764Z,10.50
2023-03-06T00:47:12.397Z,10.10
2023-03-06T00:49:45.618Z,5.33
2023-03-06T00:52:23.043Z,8.53
2023-03-06T00:55:00.652Z,8.23
2023-03-06T00:57:37.036Z,9.63
2023-03-06T01:00:17.791Z,5.33
2023-03-06T01:02:59.142Z,5.73
2023-03-06T01:06:09.701Z,6.00
2023-03-06T01:09:23.031Z,7.47
2023-03-06T01:12:23.293Z,9.07
2023-03-06T01:15:28.442Z,6.33
2023-03-06T01:18:54.088Z,4.17
2023-03-06T01:21:29.112Z,10.40
2023-03-06T01:23:59.984Z,5.00
2023-03-06T01:26:52.979Z,4.53
2023-03-06T01:29:59.082Z,3.77
2023-03-06T01:33:32.894Z,6.87
2023-03-06T01:36:13.565Z,9.83
2023-03-06T01:38:43.465Z,4.80
2023-03-06T01:41:16.019Z,5.17
2023-03-06T01:43:48.573Z,6.00
2023-03-06T01:46:38.141Z,5.67
2023-03-06T01:49:18.106Z,7.10
2023-03-06T01:51:53.205Z,5.80
2023-03-06T01:54:28.348Z,5.40
2023-03-06T01:57:04.027Z,6.77
2023-03-06T01:59:36.612Z,5.97
2023-03-06T02:02:09.308Z,4.83
2023-03-06T02:04:44.354Z,9.13
2023-03-06T02:07:14.848Z,7.63
2023-03-06T02:09:44.888Z,9.33
2023-03-06T02:12:17.285Z,7.77
2023-03-06T02:14:48.251Z,4.07
2023-03-06T02:17:21.077Z,7.43
2023-03-06T02:20:01.401Z,11.87
2023-03-06T02:22:38.783Z,4.77
2023-03-06T02:25:17.155Z,10.33
2023-03-06T02:27:50.964Z,5.67
2023-03-06T02:30:22.014Z,4.60
2023-03-06T02:32:52.044Z,7.17
2023-03-06T02:35:23.202Z,6.90
2023-03-06T02:37:53.280Z,6.70
2023-03-06T02:40:24.922Z,9.60
2023-03-06T02:43:00.584Z,7.60
2023-03-06T02:45:38.410Z,4.93
2023-03-06T02:48:09.494Z,6.77
2023-03-06T02:50:39.295Z,6.10
2023-03-06T02:53:10.188Z,7.60
2023-03-06T02:55:40.768Z,5.33
2023-03-06T02:58:13.557Z,10.60
2023-03-06T03:00:43.600Z,5.37
2023-03-06T03:03:13.490Z,5.87
2023-03-06T03:05:43.375Z,9.20
2023-03-06T03:08:19.860Z,6.17
2023-03-06T03:10:51.171Z,5.50
2023-03-06T03:13:23.836Z,6.73
2023-03-06T03:16:01.507Z,4.63
2023-03-06T03:18:31.697Z,8.97
2023-03-06T03:21:01.852Z,5.03
2023-03-06T03:23:31.683Z,7.93
2023-03-06T03:26:09.145Z,5.87
2023-03-06T03:28:44.037Z,6.83
2023-03-06T03:31:16.768Z,11.40
2023-03-06T03:33:47.338Z,6.70
2023-03-06T03:36:17.425Z,7.23
2023-03-06T03:38:49.859Z,5.63
2023-03-06T03:41:20.743Z,11.70
2023-03-06T03:44:02.725Z,7.70
2023-03-06T03:46:42.822Z,10.43
2023-03-06T03:49:21.361Z,8.67
2023-03-06T03:51:51.777Z,8.27
2023-03-06T03:54:23.436Z,8.33
2023-03-06T03:56:55.674Z,5.43
2023-03-06T03:59:35.037Z,10.90
2023-03-06T04:02:30.596Z,9.60
2023-03-06T04:05:08.790Z,15.13
2023-03-06T04:07:38.673Z,9.90
2023-03-06T04:10:10.084Z,10.90
2023-03-06T04:12:40.367Z,11.90
2023-03-06T04:15:13.996Z,7.87
2023-03-06T04:17:44.488Z,7.40
2023-03-06T04:20:18.395Z,9.30
2023-03-06T04:22:49.754Z,12.40
2023-03-06T04:25:20.487Z,7.17
2023-03-06T04:27:50.295Z,7.30
2023-03-06T04:30:24.782Z,13.13
2023-03-06T04:32:54.784Z,11.67
2023-03-06T04:35:24.527Z,8.70
2023-03-06T04:38:01.190Z,9.30
2023-03-06T04:40:34.711Z,12.20
2023-03-06T04:43:04.954Z,10.13
2023-03-06T04:45:37.656Z,15.10
2023-03-06T04:48:07.890Z,9.73
2023-03-06T04:50:38.244Z,15.40
2023-03-06T04:53:08.729Z,9.23
2023-03-06T04:55:38.421Z,6.93
2023-03-06T04:58:08.192Z,11.63
2023-03-06T05:00:40.490Z,12.00
2023-03-06T05:03:11.278Z,14.57
2023-03-06T05:05:40.919Z,9.13
2023-03-06T05:08:11.085Z,14.93
2023-03-06T05:10:40.692Z,9.53
2023-03-06T05:13:10.348Z,8.93
2023-03-06T05:15:43.199Z,13.87
2023-03-06T05:18:12.864Z,13.20
2023-03-06T05:20:42.528Z,10.73
2023-03-06T05:23:12.178Z,15.50
2023-03-06T05:25:42.745Z,10.70
2023-03-06T05:28:12.391Z,10.43
2023-03-06T05:30:44.582Z,14.03
2023-03-06T05:33:14.221Z,16.50
2023-03-06T05:35:47.995Z,15.83
2023-03-06T05:38:18.175Z,11.97
2023-03-06T05:40:48.409Z,11.40
2023-03-06T05:43:18.027Z,12.73
2023-03-06T05:45:50.591Z,14.90
2023-03-06T05:48:20.316Z,16.17
2023-03-06T05:50:57.860Z,9.90
2023-03-06T05:53:28.103Z,19.17
2023-03-06T05:56:02.182Z,13.50
2023-03-06T05:58:32.999Z,13.40
2023-03-06T06:01:11.676Z,20.27
2023-03-06T06:03:41.394Z,16.37
2023-03-06T06:06:13.211Z,13.40
2023-03-06T06:08:43.777Z,19.10
2023-03-06T06:11:14.684Z,19.00
2023-03-06T06:13:44.512Z,19.47
2023-03-06T06:16:19.641Z,12.87
2023-03-06T06:18:49.489Z,15.60
2023-03-06T06:21:19.095Z,20.40
2023-03-06T06:23:48.684Z,19.33
2023-03-06T06:26:18.432Z,17.47
2023-03-06T06:28:48.059Z,22.20
2023-03-06T06:31:20.334Z,19.13
2023-03-06T06:33:49.954Z,24.47
2023-03-06T06:36:20.146Z,23.50
2023-03-06T06:38:50.611Z,16.80
2023-03-06T06:41:42.623Z,16.10
2023-03-06T06:44:12.589Z,21.63
2023-03-06T06:49:35.428Z,20.63
2023-03-06T06:52:05.230Z,17.00
2023-03-06T06:54:35.209Z,19.57
2023-03-06T06:57:04.945Z,18.63
2023-03-06T06:59:34.598Z,18.33
2023-03-06T07:02:07.260Z,18.63
2023-03-06T07:04:36.908Z,17.93
2023-03-06T07:07:06.531Z,14.77
2023-03-06T07:09:36.164Z,19.20
2023-03-06T07:12:05.802Z,19.20
2023-03-06T07:14:35.443Z,18.87
2023-03-06T07:17:07.723Z,29.90
2023-03-06T07:19:38.606Z,17.80
2023-03-06T07:22:08.510Z,19.07
2023-03-06T07:24:38.313Z,18.00
2023-03-06T07:27:08.028Z,21.83
2023-03-06T07:29:37.888Z,19.03
2023-03-06T07:32:10.173Z,20.53
2023-03-06T07:34:39.968Z,14.90
2023-03-06T07:37:09.592Z,15.50
2023-03-06T07:39:39.443Z,19.13
2023-03-06T07:42:09.521Z,20.83
2023-03-06T07:44:44.948Z,21.90
2023-03-06T07:47:17.531Z,18.30
2023-03-06T07:49:47.184Z,19.60
2023-03-06T07:52:17.111Z,28.03
2023-03-06T07:54:46.730Z,20.50
2023-03-06T07:57:16.405Z,22.77
2023-03-06T07:59:46.020Z,19.73
2023-03-06T08:02:18.188Z,21.00
2023-03-06T08:04:47.797Z,17.50
2023-03-06T08:07:17.380Z,18.97
2023-03-06T08:09:46.997Z,21.70
2023-03-06T08:12:16.764Z,22.80
2023-03-06T08:14:46.381Z,22.63
2023-03-06T08:17:18.628Z,19.43
2023-03-06T08:19:48.283Z,18.83
2023-03-06T08:22:17.893Z,19.57
2023-03-06T08:24:47.483Z,18.83
2023-03-06T08:27:17.062Z,25.10
2023-03-06T08:29:46.668Z,19.17
2023-03-06T08:32:18.938Z,20.33
2023-03-06T08:34:48.580Z,27.70
2023-03-06T08:37:18.264Z,21.00
2023-03-06T08:39:48.346Z,17.60
2023-03-06T08:42:18.467Z,23.20
2023-03-06T08:44:48.143Z,23.90
2023-03-06T08:47:21.439Z,19.07
2023-03-06T08:49:51.052Z,20.23
2023-03-06T08:52:20.630Z,17.90
2023-03-06T08:54:50.231Z,16.27
2023-03-06T08:57:19.828Z,13.47
2023-03-06T08:59:49.414Z,11.50
2023-03-06T09:02:21.612Z,10.47
2023-03-06T09:04:51.254Z,9.70
2023-03-06T09:07:20.839Z,10.73
2023-03-06T09:09:50.463Z,10.03
2023-03-06T09:12:20.099Z,9.97
2023-03-06T09:14:49.730Z,9.23
2023-03-06T09:17:21.962Z,7.90
2023-03-06T09:19:52.492Z,9.43
2023-03-06T09:22:22.106Z,7.77
2023-03-06T09:24:52.172Z,7.80
2023-03-06T09:27:22.850Z,6.93
2023-03-06T09:29:52.520Z,5.87
2023-03-06T09:32:25.746Z,5.70
2023-03-06T09:34:55.424Z,6.80
2023-03-06T09:37:25.177Z,5.77
2023-03-06T09:39:54.819Z,4.60
2023-03-06T09:42:26.001Z,4.63
2023-03-06T09:44:58.802Z,5.17
2023-03-06T09:47:43.621Z,4.10
2023-03-06T09:50:24.728Z,5.23
2023-03-06T09:53:06.976Z,4.80
2023-03-06T09:55:40.793Z,4.00
2023-03-06T09:58:16.926Z,3.67
2023-03-06T10:00:52.896Z,3.00
2023-03-06T10:03:29.847Z,4.17
2023-03-06T10:06:04.622Z,2.30
2023-03-06T10:08:46.346Z,3.53
2023-03-06T10:11:21.181Z,3.43
2023-03-06T10:13:57.525Z,3.20
2023-03-06T10:16:30.476Z,4.37
2023-03-06T10:19:05.223Z,2.90
2023-03-06T10:21:48.513Z,5.53
2023-03-06T10:24:27.786Z,3.50
2023-03-06T10:27:06.028Z,4.30
2023-03-06T10:30:01.289Z,4.20
2023-03-06T10:32:48.251Z,1.97
2023-03-06T10:35:25.699Z,1.50
2023-03-06T10:38:02.866Z,1.90
2023-03-06T10:40:43.554Z,1.93
2023-03-06T10:43:13.916Z,2.10
2023-03-06T10:45:55.026Z,1.80
2023-03-06T10:48:27.420Z,2.73
2023-03-06T10:51:18.581Z,5.90
2023-03-06T10:53:54.592Z,3.63
2023-03-06T10:56:32.408Z,2.60
2023-03-06T10:59:10.498Z,2.53
2023-03-06T11:01:40.568Z,4.70
2023-03-06T11:04:19.294Z,3.07
2023-03-06T11:06:51.706Z,2.77
2023-03-06T11:09:25.434Z,3.70
2023-03-06T11:11:55.642Z,2.30
2023-03-06T11:14:27.594Z,2.57
2023-03-06T11:16:57.622Z,2.50
2023-03-06T11:19:33.093Z,4.93
2023-03-06T11:22:09.877Z,3.00
2023-03-06T11:24:44.402Z,2.23
2023-03-06T11:27:25.145Z,2.20
2023-03-06T11:29:57.956Z,3.00
2023-03-06T11:32:32.385Z,2.57
2023-03-06T11:35:07.353Z,4.20
2023-03-06T11:37:48.740Z,1.93
2023-03-06T11:40:25.679Z,2.53
2023-03-06T11:43:02.878Z,3.17
2023-03-06T11:45:38.976Z,1.37
2023-03-06T11:48:24.675Z,2.37
2023-03-06T11:50:56.252Z,1.57
2023-03-06T11:53:35.204Z,1.30
2023-03-06T11:56:14.673Z,2.97
2023-03-06T11:59:03.635Z,0.70
2023-03-06T12:01:38.338Z,1.83
2023-03-06T12:04:36.633Z,1.97
2023-03-06T12:07:20.398Z,1.50
2023-03-06T12:09:58.498Z,1.77
2023-03-06T12:12:53.068Z,1.70
2023-03-06T12:15:30.407Z,3.13
2023-03-06T12:18:22.037Z,2.07
2023-03-06T12:21:01.348Z,1.53
2023-03-06T12:23:50.671Z,4.87
2023-03-06T12:26:51.333Z,2.10
2023-03-06T12:29:50.296Z,1.40
2023-03-06T12:32:35.305Z,2.33
2023-03-06T12:35:17.419Z,2.33
2023-03-06T12:37:59.438Z,2.60
2023-03-06T12:40:59.758Z,2.00
2023-03-06T12:43:57.171Z,2.63
2023-03-06T12:46:28.556Z,1.53
2023-03-06T12:49:05.637Z,3.37
2023-03-06T12:51:36.178Z,2.07
2023-03-06T12:54:06.167Z,1.73
2023-03-06T12:56:37.193Z,3.97
2023-03-06T12:59:09.615Z,1.53
2023-03-06T13:09:26.575Z,2.50
2023-03-06T13:16:24.803Z,3.73
2023-03-06T13:22:52.472Z,2.10
2023-03-06T13:26:00.314Z,3.63
2023-03-06T13:29:05.001Z,1.53
2023-03-06T14:01:09.804Z,4.80
2023-03-06T14:04:34.063Z,1.13
2023-03-06T14:07:42.574Z,3.70
2023-03-06T14:10:36.368Z,3.10
2023-03-06T14:17:36.978Z,6.00
2023-03-06T14:32:17.032Z,2.63
2023-03-06T14:39:51.376Z,2.47
2023-03-06T14:43:39.873Z,4.63
2023-03-06T14:46:53.088Z,1.50
2023-03-06T14:49:59.248Z,6.17
2023-03-06T14:53:15.857Z,2.17
2023-03-06T14:56:55.213Z,3.97
2023-03-06T15:08:39.228Z,5.93
2023-03-06T15:19:16.392Z,3.57
2023-03-06T15:22:23.640Z,3.67
2023-03-06T15:25:35.830Z,3.53
2023-03-06T15:28:44.688Z,3.30
2023-03-06T15:31:58.858Z,3.87
2023-03-06T16:43:43.396Z,5.00
2023-03-06T16:46:32.852Z,7.73
2023-03-06T16:49:16.890Z,5.10
2023-03-06T16:51:56.100Z,4.57
2023-03-06T16:54:31.929Z,3.70
2023-03-06T16:57:08.588Z,4.20
2023-03-06T16:59:44.084Z,3.97
2023-03-06T17:02:17.086Z,5.20
2023-03-06T17:04:53.031Z,3.80
2023-03-06T17:07:25.448Z,6.60
2023-03-06T17:10:07.292Z,7.30
2023-03-06T17:12:41.468Z,6.87
2023-03-06T17:15:40.666Z,6.60
2023-03-06T17:18:10.960Z,7.90
2023-03-06T17:20:46.239Z,7.13
2023-03-06T17:23:25.410Z,5.47
2023-03-06T17:26:13.208Z,3.60
2023-03-06T17:28:45.927Z,9.50
2023-03-06T17:31:32.136Z,6.10
2023-03-06T17:34:04.766Z,6.00
2023-03-06T17:36:37.520Z,4.63
2023-03-06T17:39:11.042Z,5.80
2023-03-06T17:41:41.693Z,8.60
2023-03-06T17:44:17.867Z,6.00
2023-03-06T17:46:51.033Z,3.90
2023-03-06T17:49:23.320Z,5.50
2023-03-06T17:51:53.137Z,5.20
2023-03-06T17:54:23.055Z,4.37
2023-03-06T17:56:52.911Z,4.83
2023-03-06T17:59:22.569Z,11.20
2023-03-06T18:01:54.840Z,5.87
2023-03-06T18:04:24.615Z,7.77
2023-03-06T18:06:57.489Z,4.80
2023-03-06T18:09:27.289Z,5.63
2023-03-06T18:11:57.046Z,5.03
2023-03-06T18:14:26.958Z,7.80
2023-03-06T18:16:59.231Z,5.70
2023-03-06T18:19:29.001Z,7.40
2023-03-06T18:22:00.546Z,4.60
2023-03-06T18:24:30.481Z,7.73
2023-03-06T18:27:00.135Z,6.60
2023-03-06T18:29:29.872Z,6.73
2023-03-06T18:32:03.072Z,6.53
2023-03-06T18:34:32.831Z,11.83
2023-03-06T18:37:02.476Z,7.90
2023-03-06T18:39:32.302Z,10.43
2023-03-06T18:42:01.994Z,4.70
2023-03-06T18:44:32.044Z,8.23
2023-03-06T18:47:04.443Z,5.97
2023-03-06T18:49:34.216Z,10.47
2023-03-06T18:52:03.849Z,8.30
2023-03-06T18:54:33.832Z,6.57
2023-03-06T18:57:03.587Z,11.70
2023-03-06T18:59:33.412Z,6.10
2023-03-06T19:02:05.948Z,6.10
2023-03-06T19:04:35.623Z,5.50
2023-03-06T19:07:05.272Z,5.67
2023-03-06T19:09:34.918Z,5.70
2023-03-06T19:12:05.297Z,6.53
2023-03-06T19:14:36.361Z,4.30
2023-03-06T19:17:08.658Z,10.73
2023-03-06T19:19:38.358Z,11.83
2023-03-06T19:22:08.047Z,6.00
2023-03-06T19:24:38.684Z,7.60
2023-03-06T19:27:08.312Z,12.40
2023-03-06T19:29:38.623Z,7.80
2023-03-06T19:32:11.148Z,5.53
2023-03-06T19:34:40.837Z,4.60
2023-03-06T19:37:10.778Z,5.53
2023-03-06T19:39:40.364Z,7.27
2023-03-06T19:42:11.725Z,9.60
2023-03-06T19:44:43.070Z,6.77
2023-03-06T19:47:15.463Z,5.67
2023-03-06T19:49:45.072Z,7.90
2023-03-06T19:52:14.690Z,8.03
2023-03-06T19:54:46.846Z,13.10
2023-03-06T19:57:16.847Z,6.90
2023-03-06T19:59:46.596Z,9.23
2023-03-06T20:02:19.595Z,11.10
2023-03-06T20:04:49.542Z,8.47
2023-03-06T20:07:19.182Z,11.30
2023-03-06T20:09:48.916Z,8.20
2023-03-06T20:12:18.711Z,9.17
2023-03-06T20:14:48.754Z,7.80
2023-03-06T20:17:20.960Z,11.80
2023-03-06T20:19:50.644Z,8.47
2023-03-06T20:22:21.231Z,13.83
2023-03-06T20:24:50.918Z,8.53
2023-03-06T20:27:20.607Z,8.00
2023-03-06T20:29:50.225Z,7.90
2023-03-06T20:32:22.532Z,9.33
2023-03-06T20:34:52.195Z,8.87
2023-03-06T20:37:21.868Z,10.90
2023-03-06T20:39:52.707Z,12.63
2023-03-06T20:42:22.356Z,14.03
2023-03-06T20:44:51.967Z,14.53
2023-03-06T20:47:24.242Z,18.43
2023-03-06T20:49:53.882Z,21.37
2023-03-06T20:52:23.525Z,27.27
2023-03-06T20:54:53.153Z,24.83
2023-03-06T20:57:22.767Z,24.97
2023-03-06T20:59:52.396Z,28.00
2023-03-06T21:02:24.657Z,26.70
2023-03-06T21:04:54.412Z,28.53
2023-03-06T21:07:24.077Z,28.60
2023-03-06T21:09:53.767Z,28.80
2023-03-06T21:12:23.459Z,29.00
2023-03-06T21:14:53.044Z,30.63
2023-03-06T21:17:25.587Z,32.57
2023-03-06T21:19:55.406Z,31.17
2023-03-06T21:22:25.059Z,34.50
2023-03-06T21:24:54.670Z,39.70
2023-03-06T21:27:24.270Z,38.00
2023-03-06T21:29:53.951Z,40.80
2023-03-06T21:32:26.330Z,37.57
2023-03-06T21:34:56.007Z,41.47
2023-03-06T21:37:25.690Z,37.17
2023-03-06T21:39:55.499Z,36.63
2023-03-06T21:42:25.096Z,43.00
2023-03-06T21:44:54.734Z,42.63
2023-03-06T21:47:27.018Z,41.63
2023-03-06T21:49:56.616Z,42.07
2023-03-06T21:52:26.596Z,40.53
2023-03-06T21:54:56.383Z,38.57
2023-03-06T21:57:26.076Z,37.00
2023-03-06T21:59:55.697Z,37.53
2023-03-06T22:02:27.988Z,39.90
2023-03-06T22:04:57.817Z,40.20
2023-03-06T22:07:28.435Z,42.60
2023-03-06T22:09:58.268Z,44.50
2023-03-06T22:12:27.983Z,46.77
2023-03-06T22:14:57.630Z,48.83
2023-03-06T22:17:29.913Z,39.67
2023-03-06T22:19:59.677Z,45.60
2023-03-06T22:22:29.540Z,45.40
2023-03-06T22:24:59.258Z,44.20
2023-03-06T22:27:31.139Z,50.50
2023-03-06T22:30:00.749Z,48.40
2023-03-06T22:32:33.365Z,46.20
2023-03-06T22:35:03.195Z,44.27
2023-03-06T22:37:33.990Z,51.30
2023-03-06T22:40:03.622Z,44.63
2023-03-06T22:42:33.262Z,44.33
2023-03-06T22:45:02.956Z,45.80
2023-03-06T22:47:38.406Z,52.27
2023-03-06T22:50:08.937Z,47.47
2023-03-06T22:52:38.587Z,42.23
2023-03-06T22:55:09.425Z,47.93
2023-03-06T22:57:39.047Z,41.77
2023-03-06T23:00:11.110Z,44.70
2023-03-06T23:02:43.968Z,41.70
2023-03-06T23:05:13.960Z,44.70
2023-03-06T23:07:43.569Z,47.47
2023-03-06T23:10:14.119Z,42.20
2023-03-06T23:13:03.280Z,40.67
2023-03-06T23:15:51.863Z,41.27
2023-03-06T23:18:44.088Z,43.70
2023-03-06T23:21:32.395Z,40.17
2023-03-06T23:24:21.050Z,37.57
2023-03-06T23:26:50.687Z,39.70
2023-03-06T23:29:20.309Z,40.33
2023-03-06T23:31:49.878Z,38.67
2023-03-06T23:34:22.078Z,40.77
2023-03-06T23:36:51.768Z,37.00
2023-03-06T23:39:22.615Z,40.87
2023-03-06T23:41:52.263Z,37.13
2023-03-06T23:44:21.868Z,35.80
2023-03-06T23:46:51.463Z,32.50
2023-03-06T23:49:23.818Z,34.40
2023-03-06T23:51:53.506Z,37.30
2023-03-06T23:54:23.131Z,33.70
2023-03-06T23:56:52.952Z,37.93
2023-03-06T23:59:22.833Z,35.80
